sensor_id;sensor_type;location;lat;lon;timestamp;pressure;altitude;pressure_sealevel;temperature;humidity
71642;BME280;60657;50.122;14.468;2023-07-20T00:01:43;97730.82457818498;;;20.97848477912565;58.789806973373004
71642;BME280;60657;50.122;14.468;2023-07-20T00:04:58;97732.9848754521;;;20.93308918898299;59.06828412298772
71642;BME280;60657;50.122;14.468;2023-07-20T00:08:16;97743.32725160476;;;20.8503089951934;59.16174563210498
71642;BME280;60657;50.122;14.468;2023-07-20T00:11:31;97753.15109265209;;;20.895704585336077;59.033951323720146
71642;BME280;60657;50.122;14.468;2023-07-20T00:14:50;97758.95599522363;;;20.887693598840315;59.05874723430229
71642;BME280;60657;50.122;14.468;2023-07-20T00:18:05;97760.22189314394;;;20.983825436789502;58.845120927748525
71642;BME280;60657;50.122;14.468;2023-07-20T00:21:20;97770.12069532795;;;21.021210040436415;58.705882352941174
71642;BME280;60657;50.122;14.468;2023-07-20T00:24:35;97762.82683621928;;;21.010528725108728;58.95956359197375
71642;BME280;60657;50.122;14.468;2023-07-20T00:27:51;97762.23085151824;;;20.93308918898299;59.18272678721294
71642;BME280;60657;50.122;14.468;2023-07-20T00:31:06;97758.65903751022;;;20.983825436789502;59.09498741130693
71642;BME280;60657;50.122;14.468;2023-07-20T00:34:21;97766.54655249088;;;20.90371557183184;59.43068589303425
71642;BME280;60657;50.122;14.468;2023-07-20T00:37:36;97763.85938692301;;;20.786221103227277;59.73777370870528
71642;BME280;60657;50.122;14.468;2023-07-20T00:40:52;97767.7336752115;;;20.828946364538027;59.36202029449912
71642;BME280;60657;50.122;14.468;2023-07-20T00:44:07;97759.09237956148;;;20.711451895933465;59.623331044480054
71642;BME280;60657;50.122;14.468;2023-07-20T00:47:22;97750.08537586573;;;20.639353017471578;59.92851148241398
71642;BME280;60657;50.122;14.468;2023-07-20T00:50:38;97752.6279764427;;;20.810254062714577;59.38300144960708
71642;BME280;60657;50.122;14.468;2023-07-20T00:53:55;97757.01590310548;;;20.759517814908065;59.36774242771038
71642;BME280;60657;50.122;14.468;2023-07-20T00:57:10;97766.24270980597;;;20.815594720378428;59.30861371786068
71642;BME280;60657;50.122;14.468;2023-07-20T01:00:29;97769.2099895927;;;20.703440909437703;59.42877851529717
71642;BME280;60657;50.122;14.468;2023-07-20T01:03:44;97776.48430943179;;;20.62867170214389;59.92660410467688
71642;BME280;60657;50.122;14.468;2023-07-20T01:07:01;97781.29402524061;;;20.465781643396653;60.367208361943995
71642;BME280;60657;50.122;14.468;2023-07-20T01:10:29;97777.41067167472;;;20.447089341573204;60.67429617761502
71642;BME280;60657;50.122;14.468;2023-07-20T01:13:52;97772.07034386155;;;20.51918822003509;60.245136186770424
71642;BME280;60657;50.122;14.468;2023-07-20T01:17:07;97773.63732997318;;;20.521858548867016;60.186007476920736
71642;BME280;60657;50.122;14.468;2023-07-20T01:20:22;97783.89341555352;;;20.40703440909438;60.538872358281836
71642;BME280;60657;50.122;14.468;2023-07-20T01:23:45;97787.1702298787;;;20.444419012741278;60.41489280537118
71642;BME280;60657;50.122;14.468;2023-07-20T01:27:31;97784.03493440704;;;20.380331120775153;60.88410772869459
71642;BME280;60657;50.122;14.468;2023-07-20T01:31:09;97787.1702298787;;;20.471122301060504;60.44731822690166
71642;BME280;60657;50.122;14.468;2023-07-20T01:34:29;97778.83654150316;;;20.47379262989243;60.321431296253905
71642;BME280;60657;50.122;14.468;2023-07-20T01:37:46;97781.64789291508;;;20.40703440909438;60.4854657816434
71642;BME280;60657;50.122;14.468;2023-07-20T01:41:03;97792.50964862226;;;20.380331120775153;60.50263218127718
71642;BME280;60657;50.122;14.468;2023-07-20T01:44:20;97793.81972818487;;;20.32158388647288;60.71244373235676
71642;BME280;60657;50.122;14.468;2023-07-20T01:47:35;97794.28893030835;;;20.43373769741359;60.329060807202254
71642;BME280;60657;50.122;14.468;2023-07-20T01:50:50;97797.42545984413;;;20.444419012741278;60.39391165026322
71642;BME280;60657;50.122;14.468;2023-07-20T01:54:05;97798.03291361888;;;20.47379262989243;60.275654230563816
71642;BME280;60657;50.122;14.468;2023-07-20T01:57:20;97788.52430291554;;;20.553902494850078;59.86175326161593
71642;BME280;60657;50.122;14.468;2023-07-20T02:00:36;97798.7813912722;;;20.508506904707403;60.107804989700156
71642;BME280;60657;50.122;14.468;2023-07-20T02:03:52;97794.00719011083;;;20.441748683909367;60.07919432364386
71642;BME280;60657;50.122;14.468;2023-07-20T02:07:07;97789.44322873918;;;20.404364080262454;60.182192721446555
71642;BME280;60657;50.122;14.468;2023-07-20T02:10:22;97782.34893099782;;;20.244144350347142;60.80399786373694
71642;BME280;60657;50.122;14.468;2023-07-20T02:13:42;97786.18096332985;;;20.182726787212943;60.920347905699245
71642;BME280;60657;50.122;14.468;2023-07-20T02:16:58;97786.52476984354;;;20.094605935759517;61.15686274509804
71642;BME280;60657;50.122;14.468;2023-07-20T02:20:14;97780.3761922744;;;20.166704814221404;60.79446097505149
71642;BME280;60657;50.122;14.468;2023-07-20T02:23:29;97783.92919749819;;;20.067902647440306;61.21408407721066
71642;BME280;60657;50.122;14.468;2023-07-20T02:26:44;97790.9592380428;;;20.17738612954909;60.748683909361404
71642;BME280;60657;50.122;14.468;2023-07-20T02:29:59;97784.94610053813;;;20.209430075532154;60.668574044403755
71642;BME280;60657;50.122;14.468;2023-07-20T02:33:15;97795.05634931648;;;20.23613336385138;60.496910048065914
71642;BME280;60657;50.122;14.468;2023-07-20T02:36:30;97783.65373888021;;;20.15068284122988;60.697184710460064
71642;BME280;60657;50.122;14.468;2023-07-20T02:39:45;97783.51547436169;;;20.196078431372555;60.573205157549395
71642;BME280;60657;50.122;14.468;2023-07-20T02:43:00;97797.92888000693;;;20.182726787212943;60.5598535133898
71642;BME280;60657;50.122;14.468;2023-07-20T02:46:15;97790.48477816208;;;20.161364156557568;60.59990844586862
71642;BME280;60657;50.122;14.468;2023-07-20T02:49:31;97795.81297044594;;;20.091935606927592;60.9127183947509
71642;BME280;60657;50.122;14.468;2023-07-20T02:52:46;97781.3334206586;;;20.140001525902193;60.987106126497295
71642;BME280;60657;50.122;14.468;2023-07-20T02:56:01;97787.95756140377;;;19.995803768978405;61.557412069886325
71642;BME280;60657;50.122;14.468;2023-07-20T02:59:17;97800.57293839696;;;19.832913710231168;61.910276951247425
71642;BME280;60657;50.122;14.468;2023-07-20T03:02:32;97806.31147174671;;;19.82757305256733;61.81872281986725
71642;BME280;60657;50.122;14.468;2023-07-20T03:05:48;97798.73392821508;;;19.835584039063093;61.83207446402686
71642;BME280;60657;50.122;14.468;2023-07-20T03:09:03;97808.21622753801;;;19.747463187609668;62.10101472495613
71642;BME280;60657;50.122;14.468;2023-07-20T03:12:19;97819.5325005537;;;19.704737926298918;62.35278858625162
71642;BME280;60657;50.122;14.468;2023-07-20T03:15:34;97812.44765694287;;;19.77950713359273;62.1658655680171
71642;BME280;60657;50.122;14.468;2023-07-20T03:18:49;97813.62325177551;;;19.824902723735406;62.06668192568857
71642;BME280;60657;50.122;14.468;2023-07-20T03:22:05;97812.05017194527;;;19.77950713359273;62.40810254062714
71642;BME280;60657;50.122;14.468;2023-07-20T03:25:21;97819.8928031254;;;19.77683680476082;62.20973525597009
71642;BME280;60657;50.122;14.468;2023-07-20T03:28:36;97829.04422115098;;;19.790188448920418;62.312733653772796
71642;BME280;60657;50.122;14.468;2023-07-20T03:31:51;97827.33831794724;;;19.814221408407718;62.22117952239262
71642;BME280;60657;50.122;14.468;2023-07-20T03:35:07;97821.13504769733;;;19.88899061570153;62.16014343480583
71642;BME280;60657;50.122;14.468;2023-07-20T03:38:23;97823.66120691187;;;19.878309300373843;62.26504921034562
71642;BME280;60657;50.122;14.468;2023-07-20T03:41:40;97817.52198441046;;;19.90501258869307;62.2383459220264
71642;BME280;60657;50.122;14.468;2023-07-20T03:44:55;97814.04166815104;;;19.918364232852667;62.21545738918135
71642;BME280;60657;50.122;14.468;2023-07-20T03:48:10;97823.94634608529;;;19.969100480659193;62.032349126420996
71642;BME280;60657;50.122;14.468;2023-07-20T03:51:25;97810.42587766203;;;19.97444113832303;61.854962996871905
71642;BME280;60657;50.122;14.468;2023-07-20T03:54:41;97821.96970143706;;;20.081254291599905;61.71190966659037
71642;BME280;60657;50.122;14.468;2023-07-20T03:57:56;97826.5400956073;;;19.97444113832303;62.34897383077745
71642;BME280;60657;50.122;14.468;2023-07-20T04:01:11;97829.68514508683;;;20.027847714961467;61.92362859540704
71642;BME280;60657;50.122;14.468;2023-07-20T04:04:26;97833.50018092626;;;19.971770809491105;62.133440146486606
71642;BME280;60657;50.122;14.468;2023-07-20T04:07:43;97828.0261216014;;;19.90768291752498;62.41000991836424
71642;BME280;60657;50.122;14.468;2023-07-20T04:10:58;97830.06158320347;;;19.80354009308003;62.82772564278629
71642;BME280;60657;50.122;14.468;2023-07-20T04:14:16;97835.67016363764;;;19.854276340886543;62.858243686579684
71642;BME280;60657;50.122;14.468;2023-07-20T04:17:31;97830.35340820298;;;19.859616998550393;62.86778057526513
71642;BME280;60657;50.122;14.468;2023-07-20T04:20:46;97832.61361386358;;;19.966430151827268;62.45769436179141
71642;BME280;60657;50.122;14.468;2023-07-20T04:24:02;97845.77408018422;;;19.824902723735406;63.00701915007248
71642;BME280;60657;50.122;14.468;2023-07-20T04:27:18;97847.80684447203;;;19.816891737239644;63.13290608072023
71642;BME280;60657;50.122;14.468;2023-07-20T04:30:34;97848.692140852;;;19.739452201113906;63.16533150225071
71642;BME280;60657;50.122;14.468;2023-07-20T04:33:50;97854.79542875574;;;19.88097962920577;63.02800030518044
71642;BME280;60657;50.122;14.468;2023-07-20T04:37:05;97855.68132043158;;;19.856946669718468;62.945983062485695
71642;BME280;60657;50.122;14.468;2023-07-20T04:40:21;97848.92292009495;;;19.86228732738232;63.06996261539635
71642;BME280;60657;50.122;14.468;2023-07-20T04:43:36;97856.56714664634;;;19.840924696726944;63.033722438391706
71642;BME280;60657;50.122;14.468;2023-07-20T04:46:51;97852.0712963627;;;19.97978179598688;62.90402075226977
71642;BME280;60657;50.122;14.468;2023-07-20T04:50:07;97856.65993827405;;;20.051880674448768;62.49011978332189
71642;BME280;60657;50.122;14.468;2023-07-20T04:53:22;97853.57904753136;;;20.01716639963378;62.75143053330281
71642;BME280;60657;50.122;14.468;2023-07-20T04:56:37;97850.78633093591;;;20.081254291599905;62.589303425650414
71642;BME280;60657;50.122;14.468;2023-07-20T04:59:53;97845.46471632125;;;20.10261692225528;62.54543373769741
71642;BME280;60657;50.122;14.468;2023-07-20T05:03:08;97862.88593313326;;;20.18806744487678;62.341344319829105
71642;BME280;60657;50.122;14.468;2023-07-20T05:06:23;97853.19096387964;;;20.300221255817505;61.96940566109713
71642;BME280;60657;50.122;14.468;2023-07-20T05:09:38;97849.0235988798;;;20.249485008010993;61.98657206073091
71642;BME280;60657;50.122;14.468;2023-07-20T05:12:54;97855.24134677737;;;20.404364080262454;61.53452353704128
71642;BME280;60657;50.122;14.468;2023-07-20T05:16:09;97850.31446697058;;;20.60997940032044;61.18547341115435
71642;BME280;60657;50.122;14.468;2023-07-20T05:19:24;97850.57515859827;;;20.650034332799265;61.0443274586099
71642;BME280;60657;50.122;14.468;2023-07-20T05:22:40;97862.33110525877;;;20.666056305790804;60.983291371023114
71642;BME280;60657;50.122;14.468;2023-07-20T05:25:55;97857.13230684937;;;20.724803540093077;60.70862897688258
71642;BME280;60657;50.122;14.468;2023-07-20T05:29:16;97860.69167582657;;;20.706111238269628;61.12825207904173
71642;BME280;60657;50.122;14.468;2023-07-20T05:32:32;97862.09031032439;;;20.895704585336077;60.80399786373694
71642;BME280;60657;50.122;14.468;2023-07-20T05:35:47;97869.75169998613;;;20.94644083314259;60.47592889295797
71642;BME280;60657;50.122;14.468;2023-07-20T05:39:03;97864.19089818509;;;21.0452429999237;60.193636987869084
71642;BME280;60657;50.122;14.468;2023-07-20T05:42:23;97857.37702021506;;;21.4591439688716;59.01487754634928
71642;BME280;60657;50.122;14.468;2023-07-20T05:45:41;97858.34433884532;;;21.448462653543913;58.782177462424656
71642;BME280;60657;50.122;14.468;2023-07-20T05:48:57;97864.5217791813;;;21.33096818493935;58.86037994964522
71642;BME280;60657;50.122;14.468;2023-07-20T05:52:12;97867.79920179449;;;21.336308842603188;59.033951323720146
71642;BME280;60657;50.122;14.468;2023-07-20T05:55:28;97868.019370926;;;21.280231937132825;58.85275043869687
71642;BME280;60657;50.122;14.468;2023-07-20T05:58:44;97875.90528422226;;;21.218814373998626;59.19035629816129
71642;BME280;60657;50.122;14.468;2023-07-20T06:02:00;97869.87758821661;;;21.25619897764554;59.12741283283742
71642;BME280;60657;50.122;14.468;2023-07-20T06:05:15;97878.89152903699;;;21.352330815594726;59.03204394598306
71642;BME280;60657;50.122;14.468;2023-07-20T06:08:30;97879.64632830015;;;21.549935149156937;58.28053711757076
71642;BME280;60657;50.122;14.468;2023-07-20T06:11:50;97875.84752606973;;;21.614023041123062;58.38353551537347
71642;BME280;60657;50.122;14.468;2023-07-20T06:15:10;97873.22924044932;;;21.80895704585336;58.26718547341116
71642;BME280;60657;50.122;14.468;2023-07-20T06:18:40;97865.88221248673;;;22.097352559700923;57.36881055924315
71642;BME280;60657;50.122;14.468;2023-07-20T06:21:55;97868.68931594086;;;22.206836041809723;56.8461890592813
71642;BME280;60657;50.122;14.468;2023-07-20T06:25:11;97867.51998598826;;;22.059967956054024;56.924391546501866
71642;BME280;60657;50.122;14.468;2023-07-20T06:28:26;97879.33444316326;;;22.1667811093309;56.45708400091554
71642;BME280;60657;50.122;14.468;2023-07-20T06:31:42;97868.95745226847;;;22.316319523918523;55.8295567254139
71642;BME280;60657;50.122;14.468;2023-07-20T06:34:57;97872.91503108025;;;22.51659418631266;55.516746776531626
71642;BME280;60657;50.122;14.468;2023-07-20T06:38:13;97866.54426387922;;;22.887769893949795;54.76142519264515
71642;BME280;60657;50.122;14.468;2023-07-20T06:41:28;97874.23006246444;;;23.045319295033195;53.82108796826123
71642;BME280;60657;50.122;14.468;2023-07-20T06:44:44;97864.99010607842;;;22.845044632639045;53.201190203707945
71642;BME280;60657;50.122;14.468;2023-07-20T06:47:59;97858.93619763221;;;22.607385366597995;54.39902342259861
71642;BME280;60657;50.122;14.468;2023-07-20T06:51:14;97864.58030970536;;;22.59136339360647;54.06332494087129
71642;BME280;60657;50.122;14.468;2023-07-20T06:54:29;97863.76462784369;;;22.767605096513307;53.983215075913634
71642;BME280;60657;50.122;14.468;2023-07-20T06:57:45;97861.30333979314;;;22.938506141756307;53.79247730220493
71642;BME280;60657;50.122;14.468;2023-07-20T07:01:04;97854.09171124035;;;23.015945677882044;53.35378042267491
71642;BME280;60657;50.122;14.468;2023-07-20T07:04:19;97861.45545098289;;;23.125429159990844;52.82162203402762
71642;BME280;60657;50.122;14.468;2023-07-20T07:07:35;97864.41045515038;;;23.050659952697032;52.55840390630961
71642;BME280;60657;50.122;14.468;2023-07-20T07:10:50;97867.51709394358;;;23.141451132982382;52.331425955596245
71642;BME280;60657;50.122;14.468;2023-07-20T07:14:07;97877.65239979253;;;23.205539024948507;52.24177920195316
71642;BME280;60657;50.122;14.468;2023-07-20T07:17:22;97877.23114689985;;;23.31769283588922;51.995727473868925
71642;BME280;60657;50.122;14.468;2023-07-20T07:20:38;97871.81924492793;;;23.678187228198667;51.11451895933471
71642;BME280;60657;50.122;14.468;2023-07-20T07:23:53;97874.88490504242;;;23.993286030365454;50.21614404516671
71642;BME280;60657;50.122;14.468;2023-07-20T07:27:08;97872.80512821508;;;24.10811017013809;50.055924315251396
71642;BME280;60657;50.122;14.468;2023-07-20T07:30:24;97866.91787047121;;;24.39383535515374;49.61150530251011
71642;BME280;60657;50.122;14.468;2023-07-20T07:33:39;97863.8275852735;;;24.4632639047837;48.90196078431372
71642;BME280;60657;50.122;14.468;2023-07-20T07:36:56;97864.10156142517;;;24.324406805523765;48.44228274967575
71642;BME280;60657;50.122;14.468;2023-07-20T07:40:11;97867.8227997633;;;24.44991226062409;48.03219653620203
71642;BME280;60657;50.122;14.468;2023-07-20T07:43:26;97870.18318798412;;;24.404516670481428;48.306858930342564
71642;BME280;60657;50.122;14.468;2023-07-20T07:46:42;97872.7898275634;;;24.716945143816275;46.6226443884947
71642;BME280;60657;50.122;14.468;2023-07-20T07:49:57;97873.36452142807;;;24.084077210650804;46.98886091401541
71642;BME280;60657;50.122;14.468;2023-07-20T07:53:13;97874.68553260395;;;23.787670710307466;48.27824826428626
71642;BME280;60657;50.122;14.468;2023-07-20T07:56:28;97870.53010716122;;;23.931868467231254;48.46135652704662
71642;BME280;60657;50.122;14.468;2023-07-20T07:59:44;97870.61894393187;;;23.89448386358434;48.316395819028
71642;BME280;60657;50.122;14.468;2023-07-20T08:02:59;97872.69724527115;;;23.883802548256654;48.196231021591515
71642;BME280;60657;50.122;14.468;2023-07-20T08:06:14;97865.44631563194;;;23.982604715037766;48.35072861829557
71642;BME280;60657;50.122;14.468;2023-07-20T08:09:30;97881.97783234244;;;24.02800030518044;47.85290302891585
71642;BME280;60657;50.122;14.468;2023-07-20T08:12:46;97886.52708993337;;;24.15617608911269;47.692683299000535
71642;BME280;60657;50.122;14.468;2023-07-20T08:16:01;97885.43724055159;;;24.604791332875564;47.28641184100099
71642;BME280;60657;50.122;14.468;2023-07-20T08:19:17;97880.57134785238;;;25.320439459830624;45.453421835660336
71642;BME280;60657;50.122;14.468;2023-07-20T08:22:32;97875.69013971738;;;25.662241550316622;44.545510032806895
71642;BME280;60657;50.122;14.468;2023-07-20T08:25:48;97876.72566500351;;;25.371175707637136;44.85069047074082
71642;BME280;60657;50.122;14.468;2023-07-20T08:29:03;97873.82857097163;;;25.48332951857786;45.26840619516289
71642;BME280;60657;50.122;14.468;2023-07-20T08:32:19;97874.92113810232;;;25.865186541542684;44.49782558937972
71642;BME280;60657;50.122;14.468;2023-07-20T08:35:34;97872.39446346946;;;26.140230411230647;43.3667505912871
71642;BME280;60657;50.122;14.468;2023-07-20T08:38:50;97880.0353652;;;25.99603265430686;43.65094987411307
71642;BME280;60657;50.122;14.468;2023-07-20T08:42:08;97878.5623610645;;;25.707637140459298;44.135423819333184
71642;BME280;60657;50.122;14.468;2023-07-20T08:45:25;97883.46204732367;;;25.710307469291223;44.04577706569009
71642;BME280;60657;50.122;14.468;2023-07-20T08:48:42;97881.15278622025;;;25.857175555046922;43.8226138704509
71642;BME280;60657;50.122;14.468;2023-07-20T08:51:59;97870.76431579492;;;26.239032578011745;43.536507209887844
71642;BME280;60657;50.122;14.468;2023-07-20T08:55:15;97864.20792756928;;;26.58884565499352;42.52559700923171
71642;BME280;60657;50.122;14.468;2023-07-20T08:58:30;97872.89995848107;;;26.39391165026322;42.016327153429465
71642;BME280;60657;50.122;14.468;2023-07-20T09:01:49;97864.13286531135;;;26.196307316700995;42.819333180743115
71642;BME280;60657;50.122;14.468;2023-07-20T09:05:07;97868.9116620398;;;26.47402151522087;42.054474708171206
71642;BME280;60657;50.122;14.468;2023-07-20T09:08:23;97859.94805098047;;;25.955977721828035;42.74494544899672
71642;BME280;60657;50.122;14.468;2023-07-20T09:11:38;97868.389518758;;;25.73968108644236;43.01770046540017
71642;BME280;60657;50.122;14.468;2023-07-20T09:14:57;97869.0280000966;;;26.030746929121847;42.941405355916686
71642;BME280;60657;50.122;14.468;2023-07-20T09:18:12;97870.79038393326;;;25.523384451056685;42.49889372091249
71642;BME280;60657;50.122;14.468;2023-07-20T09:21:38;97865.8907425987;;;25.480659189745936;42.26428625925078
71642;BME280;60657;50.122;14.468;2023-07-20T09:24:54;97876.19823056592;;;25.165560387579163;42.901350423437854
71642;BME280;60657;50.122;14.468;2023-07-20T09:28:10;97865.14639413518;;;25.101472495613038;43.00434882124056
71642;BME280;60657;50.122;14.468;2023-07-20T09:31:25;97865.29024875439;;;25.184252689402612;43.16838330663005
71642;BME280;60657;50.122;14.468;2023-07-20T09:34:41;97870.42700029744;;;25.34981307698176;43.13405050736248
71642;BME280;60657;50.122;14.468;2023-07-20T09:37:59;97858.293208706;;;25.822461280231934;42.31006332494087
71642;BME280;60657;50.122;14.468;2023-07-20T09:41:16;97863.70755776032;;;25.86251621271076;40.85091935606928
71642;BME280;60657;50.122;14.468;2023-07-20T09:44:33;97856.04364949325;;;25.81979095140001;41.59098191805905
71642;BME280;60657;50.122;14.468;2023-07-20T09:47:49;97845.86376345891;;;26.96269169146258;40.3321126115816
71642;BME280;60657;50.122;14.468;2023-07-20T09:51:05;97839.85311445553;;;27.40863660639353;38.552529182879375
71642;BME280;60657;50.122;14.468;2023-07-20T09:54:22;97829.24234658449;;;28.09491111619745;37.90592813000686
71642;BME280;60657;50.122;14.468;2023-07-20T09:57:39;97839.60798455565;;;27.547493705653466;36.47730220492866
71642;BME280;60657;50.122;14.468;2023-07-20T10:00:57;97835.19071263663;;;28.126955062180514;35.85168230716411
71642;BME280;60657;50.122;14.468;2023-07-20T10:04:19;97824.38630988216;;;28.140306706340127;36.07675288014038
71642;BME280;60657;50.122;14.468;2023-07-20T10:07:40;97838.11322013126;;;27.189669642175943;37.39284351873045
71642;BME280;60657;50.122;14.468;2023-07-20T10:10:59;97833.59249638212;;;26.858548867017618;38.14053559166857
71642;BME280;60657;50.122;14.468;2023-07-20T10:14:19;97842.24129576501;;;26.554131380178532;38.85389486533913
71642;BME280;60657;50.122;14.468;2023-07-20T10:17:38;97847.29991004661;;;26.054779888609147;39.820935378042265
71642;BME280;60657;50.122;14.468;2023-07-20T10:21:02;97845.0422296326;;;26.324483100633245;39.64164187075608
71642;BME280;60657;50.122;14.468;2023-07-20T10:24:22;97837.2846606086;;;26.383230334935533;39.727473868925
71642;BME280;60657;50.122;14.468;2023-07-20T10:27:39;97845.85810796509;;;26.297779812314033;39.47188525215534
71642;BME280;60657;50.122;14.468;2023-07-20T10:30:57;97845.04821250835;;;26.879911497672992;38.94163424124513
71642;BME280;60657;50.122;14.468;2023-07-20T10:34:13;97829.25571011075;;;27.02944991226063;37.930724040589
71642;BME280;60657;50.122;14.468;2023-07-20T10:37:49;97847.2403476925;;;26.978713664454105;37.8124666208896
71642;BME280;60657;50.122;14.468;2023-07-20T10:41:15;97834.9628734948;;;27.00007629510948;37.90974288548104
71642;BME280;60657;50.122;14.468;2023-07-20T10:44:31;97847.45510048747;;;26.922636758983742;37.55497062638285
71642;BME280;60657;50.122;14.468;2023-07-20T10:47:47;97845.57959051651;;;26.722362096589606;38.86152437628748
71642;BME280;60657;50.122;14.468;2023-07-20T10:51:11;97844.68830647338;;;26.57282368200198;40.37026016632334
71642;BME280;60657;50.122;14.468;2023-07-20T10:54:46;97853.2886600639;;;26.401922636758982;40.84328984512093
71642;BME280;60657;50.122;14.468;2023-07-20T10:58:06;97850.44195237647;;;26.361867704280158;40.580071717402916
71642;BME280;60657;50.122;14.468;2023-07-20T11:01:27;97848.20383988366;;;26.882581826504918;39.52910658426795
71642;BME280;60657;50.122;14.468;2023-07-20T11:04:45;97841.7016247232;;;27.050812542916006;39.26398107881285
71642;BME280;60657;50.122;14.468;2023-07-20T11:08:03;97840.68118960012;;;27.63027389944304;37.63889524681468
71642;BME280;60657;50.122;14.468;2023-07-20T11:11:21;97837.29805973728;;;27.301823453116654;37.8124666208896
71642;BME280;60657;50.122;14.468;2023-07-20T11:14:40;97833.98670172977;;;27.19501029983978;37.7380788891432
71642;BME280;60657;50.122;14.468;2023-07-20T11:18:10;97837.08418543625;;;27.056153200579843;37.67704280155642
71642;BME280;60657;50.122;14.468;2023-07-20T11:21:27;97828.7146983516;;;27.02410925459678;37.526359960326545
71642;BME280;60657;50.122;14.468;2023-07-20T11:24:44;97827.62512006622;;;26.989394979781792;37.67895017929351
71642;BME280;60657;50.122;14.468;2023-07-20T11:27:59;97832.21229773537;;;26.618219272144657;38.02800030518044
71642;BME280;60657;50.122;14.468;2023-07-20T11:31:15;97818.77199015093;;;26.457999542229345;38.161516746776535
71642;BME280;60657;50.122;14.468;2023-07-20T11:34:31;97826.25383613564;;;26.757076371404594;37.982223239490345
71642;BME280;60657;50.122;14.468;2023-07-20T11:37:48;97816.43243554722;;;27.15762569619288;37.57785915922789
71642;BME280;60657;50.122;14.468;2023-07-20T11:41:03;97800.99574300766;;;28.012130922407877;35.983291371023114
71642;BME280;60657;50.122;14.468;2023-07-20T11:44:20;97801.75273829773;;;28.965438315403986;34.213244831006335
71642;BME280;60657;50.122;14.468;2023-07-20T11:47:39;97798.5889373094;;;29.02418554970626;34.37346456092165
71642;BME280;60657;50.122;14.468;2023-07-20T11:50:56;97794.083145605;;;29.256504158083473;34.02822919050889